This is the latest recevied weather packets stored in our database for station/object JH5EWP-13. If no packets are shown the sender has not sent any weather packets the latest 10 day(s).
| Time | Temp. | Humidity | Pressure | Rain* | Wind** | Luminosity | Snow |
|---|---|---|---|---|---|---|---|
| 1778203283 | 21.11° C | 61% | 1001.2 hPa | 0 mm | - | - | - |
| 1778202384 | 21.67° C | 62% | 1001.3 hPa | 0 mm | - | - | - |
| 1778201484 | 21.67° C | 62% | 1001 hPa | 0 mm | - | - | - |
| 1778200584 | 21.67° C | 62% | 1000.7 hPa | 0 mm | - | - | - |
| 1778199682 | 21.11° C | 64% | 1001 hPa | 0 mm | - | - | - |
| 1778198783 | 20.56° C | 64% | 1000.8 hPa | 0 mm | - | - | - |
| 1778197883 | 20.56° C | 64% | 1001.1 hPa | 0 mm | - | - | - |
| 1778196983 | 20.56° C | 65% | 1001 hPa | 0 mm | - | - | - |
| 1778196083 | 21.11° C | 62% | 1000.9 hPa | 0 mm | - | - | - |
| 1778195183 | 22.22° C | 53% | 1000.7 hPa | 0 mm | - | - | - |
| 1778194283 | 22.78° C | 49% | 1000.4 hPa | 0 mm | - | - | - |
| 1778193384 | 23.33° C | 59% | 1000.5 hPa | 0 mm | - | - | - |
| 1778192483 | 21.67° C | 69% | 1000.3 hPa | 0 mm | - | - | - |
| 1778191583 | 20.56° C | 73% | 1000.4 hPa | 0 mm | - | - | - |
| 1778190682 | 20.56° C | 79% | 1000.7 hPa | 0 mm | - | - | - |
| 1778189782 | 19.44° C | 81% | 1000.7 hPa | 0 mm | - | - | - |
| 1778188883 | 18.89° C | 81% | 1000.5 hPa | 0 mm | - | - | - |
| 1778187983 | 18.89° C | 81% | 1000.4 hPa | 0 mm | - | - | - |
| 1778187083 | 18.89° C | 81% | 1000.3 hPa | 0 mm | - | - | - |
| 1778186183 | 18.33° C | 81% | 1000.2 hPa | 0 mm | - | - | - |
| 1778185282 | 18.33° C | 81% | 1000.4 hPa | 0 mm | - | - | - |
| 1778184382 | 18.33° C | 82% | 1000.4 hPa | 0 mm | - | - | - |
| 1778183484 | 18.33° C | 83% | 1000.5 hPa | 0 mm | - | - | - |
| 1778182584 | 18.33° C | 83% | 1000.1 hPa | 0 mm | - | - | - |
| 1778181683 | 18.33° C | 83% | 1000.1 hPa | 0 mm | - | - | - |
* Rain latest hour (hover to see other rain measurements)
** Current wind speed in m/s (hover to see current wind gust speed)